Time;durP1;ratioP1;P1;durP2;ratioP2;P2;SDS_P1;SDS_P2;PMS_P1;PMS_P2;Temp;Humidity;BMP_temperature;BMP_pressure;BME280_temperature;BME280_humidity;BME280_pressure;Samples;Min_cycle;Max_cycle;Signal;HPM_P1;HPM_P2
2024/01/08 04:02:40;;;;;;;1.60;1.50;;;22.90;20.30;;;;;;4099818;22;47788;-51
2024/01/08 04:05:09;;;;;;;1.70;1.60;;;22.90;20.40;;;;;;4933266;28;45507;-53
2024/01/08 04:07:35;;;;;;;1.50;1.40;;;22.90;20.30;;;;;;4905900;28;46182;-48
2024/01/08 04:10:00;;;;;;;1.60;1.50;;;22.80;20.30;;;;;;4926439;28;45488;-50
2024/01/08 04:12:26;;;;;;;1.75;1.63;;;22.90;20.30;;;;;;4917973;28;45556;-51
2024/01/08 04:14:51;;;;;;;1.48;1.38;;;22.90;20.30;;;;;;4934033;28;45116;-52
2024/01/08 04:17:17;;;;;;;1.52;1.42;;;22.90;20.30;;;;;;4905345;28;45987;-48
2024/01/08 04:19:42;;;;;;;1.47;1.37;;;22.80;20.20;;;;;;4908327;28;45087;-47
2024/01/08 04:22:08;;;;;;;1.83;1.63;;;22.80;20.20;;;;;;4891163;28;46037;-48
2024/01/08 04:24:33;;;;;;;1.40;1.30;;;22.80;20.20;;;;;;4926575;28;45501;-49
2024/01/08 04:26:59;;;;;;;1.53;1.43;;;22.80;20.30;;;;;;4923296;28;45148;-47
2024/01/08 04:29:24;;;;;;;1.80;1.40;;;22.80;20.30;;;;;;4931301;28;45545;-51
2024/01/08 04:31:50;;;;;;;1.50;1.40;;;22.80;20.20;;;;;;4893369;28;45644;-53
2024/01/08 04:34:16;;;;;;;1.50;1.40;;;22.80;20.30;;;;;;4883820;28;46210;-51
2024/01/08 04:36:43;;;;;;;1.60;1.50;;;22.80;20.20;;;;;;4906719;28;45301;-51
2024/01/08 04:39:09;;;;;;;1.83;1.48;;;22.80;20.30;;;;;;4907715;28;44941;-46
2024/01/08 04:41:35;;;;;;;1.52;1.42;;;22.80;20.20;;;;;;4896517;28;45006;-48
2024/01/08 04:44:00;;;;;;;1.50;1.40;;;22.80;20.20;;;;;;4926066;28;44966;-48
2024/01/08 04:46:29;;;;;;;1.67;1.57;;;22.80;20.20;;;;;;4908970;28;45948;-42
2024/01/08 04:48:58;;;;;;;1.57;1.47;;;22.80;20.20;;;;;;4924852;28;45289;-41
2024/01/08 04:51:25;;;;;;;2.28;1.73;;;22.80;20.20;;;;;;4922627;28;45819;-43
2024/01/08 04:53:51;;;;;;;1.60;1.50;;;22.70;20.20;;;;;;4923888;28;46201;-42
2024/01/08 04:56:24;;;;;;;1.70;1.50;;;22.80;20.20;;;;;;4918908;28;45856;-43
2024/01/08 04:58:51;;;;;;;1.45;1.35;;;22.80;20.20;;;;;;4890788;28;45309;-45
2024/01/08 05:01:16;;;;;;;1.60;1.48;;;22.80;20.20;;;;;;4863880;28;45503;-41
2024/01/08 05:03:43;;;;;;;1.70;1.60;;;22.70;20.20;;;;;;4920066;28;45220;-42
2024/01/08 05:06:10;;;;;;;1.50;1.40;;;22.70;20.20;;;;;;4929697;28;45876;-50
2024/01/08 05:08:36;;;;;;;1.50;1.40;;;22.70;20.20;;;;;;4945435;28;44955;-40
2024/01/08 05:11:01;;;;;;;1.60;1.50;;;22.70;20.20;;;;;;4934312;28;45725;-47
2024/01/08 05:13:27;;;;;;;1.53;1.43;;;22.70;20.20;;;;;;4949163;28;45634;-45
2024/01/08 05:15:52;;;;;;;1.90;1.60;;;22.70;20.20;;;;;;4929981;28;45479;-46
2024/01/08 05:18:18;;;;;;;1.83;1.50;;;22.70;20.20;;;;;;4945252;28;45131;-48
2024/01/08 05:20:43;;;;;;;1.70;1.60;;;22.70;20.20;;;;;;4939921;28;45466;-49
2024/01/08 05:23:09;;;;;;;1.67;1.55;;;22.70;20.20;;;;;;4951643;28;45240;-46
2024/01/08 05:25:34;;;;;;;1.70;1.60;;;22.70;20.20;;;;;;4938275;28;46319;-47
2024/01/08 05:28:01;;;;;;;1.60;1.43;;;22.70;20.20;;;;;;4932071;28;45232;-48
2024/01/08 05:30:26;;;;;;;1.60;1.50;;;22.70;20.20;;;;;;4917165;28;45818;-48
2024/01/08 05:32:53;;;;;;;1.50;1.35;;;22.60;20.20;;;;;;4927309;28;45357;-50
2024/01/08 05:35:18;;;;;;;1.83;1.63;;;22.70;20.20;;;;;;4937280;28;46034;-53
2024/01/08 05:37:44;;;;;;;1.75;1.65;;;22.70;20.20;;;;;;4924700;28;45378;-53
2024/01/08 05:40:10;;;;;;;1.65;1.55;;;22.70;20.20;;;;;;4922044;28;45853;-50
2024/01/08 05:42:36;;;;;;;1.97;1.63;;;22.70;20.20;;;;;;4923184;28;45763;-45
2024/01/08 05:45:03;;;;;;;1.65;1.55;;;22.70;20.20;;;;;;4935715;28;46931;-53
2024/01/08 05:47:29;;;;;;;1.58;1.48;;;22.70;20.20;;;;;;4930782;28;45426;-48
2024/01/08 05:49:54;;;;;;;1.70;1.60;;;22.70;20.20;;;;;;4947184;28;45796;-42
2024/01/08 05:52:21;;;;;;;1.73;1.63;;;22.60;20.20;;;;;;4939736;28;44954;-49
2024/01/08 05:54:46;;;;;;;1.70;1.60;;;22.60;20.20;;;;;;4948531;28;45579;-42
2024/01/08 05:57:12;;;;;;;1.85;1.70;;;22.60;20.20;;;;;;4910868;28;45166;-46
2024/01/08 05:59:38;;;;;;;1.90;1.65;;;22.60;20.20;;;;;;4953215;28;45737;-52
2024/01/08 06:02:04;;;;;;;1.70;1.60;;;22.60;20.20;;;;;;4914881;28;45936;-41
2024/01/08 06:04:30;;;;;;;2.80;1.70;;;22.60;20.20;;;;;;4912069;28;45413;-49
2024/01/08 06:06:56;;;;;;;2.00;1.60;;;22.60;20.20;;;;;;4930447;28;45612;-43
2024/01/08 06:09:21;;;;;;;2.40;1.53;;;22.60;20.20;;;;;;4943832;28;45803;-46
2024/01/08 06:11:47;;;;;;;1.70;1.60;;;22.50;20.20;;;;;;4937995;28;45934;-48
2024/01/08 06:14:12;;;;;;;1.70;1.60;;;22.50;20.20;;;;;;4951293;28;45737;-46
2024/01/08 06:16:38;;;;;;;2.10;1.70;;;22.50;20.20;;;;;;4923719;28;45620;-47
2024/01/08 06:19:03;;;;;;;1.70;1.60;;;22.50;20.20;;;;;;4948349;28;45215;-40
2024/01/08 06:21:29;;;;;;;1.93;1.80;;;22.50;20.20;;;;;;4939668;28;45445;-46
2024/01/08 06:23:55;;;;;;;2.00;1.80;;;22.50;20.20;;;;;;4925206;28;46084;-41
2024/01/08 06:26:21;;;;;;;1.70;1.60;;;22.50;20.20;;;;;;4919322;28;46111;-42
2024/01/08 06:28:46;;;;;;;1.70;1.60;;;22.50;20.20;;;;;;4943842;28;45988;-45
2024/01/08 06:31:15;;;;;;;1.88;1.73;;;22.50;20.20;;;;;;4925240;28;46257;-48
2024/01/08 06:33:41;;;;;;;2.00;1.80;;;22.50;20.20;;;;;;4941696;28;46725;-51
2024/01/08 06:36:07;;;;;;;1.95;1.80;;;22.50;20.30;;;;;;4936416;28;45156;-53
2024/01/08 06:38:33;;;;;;;1.87;1.77;;;22.50;20.70;;;;;;4949959;28;45270;-51
2024/01/08 06:40:58;;;;;;;2.20;1.93;;;22.50;20.30;;;;;;4921719;28;45566;-44
2024/01/08 06:43:24;;;;;;;2.13;1.75;;;22.40;20.30;;;;;;4934452;28;45538;-43
2024/01/08 06:45:49;;;;;;;1.80;1.70;;;22.50;20.30;;;;;;4928708;28;45538;-42
2024/01/08 06:48:15;;;;;;;1.80;1.70;;;22.40;20.20;;;;;;4928474;28;45349;-43
2024/01/08 06:50:40;;;;;;;2.00;1.80;;;22.40;20.30;;;;;;4939901;28;46968;-44
2024/01/08 06:53:06;;;;;;;2.20;1.92;;;22.40;20.20;;;;;;4941727;28;46846;-44
2024/01/08 06:55:31;;;;;;;2.28;2.08;;;22.40;20.20;;;;;;4921940;28;47006;-43
2024/01/08 06:57:57;;;;;;;2.00;1.80;;;22.40;20.20;;;;;;4945513;28;45321;-46
2024/01/08 07:00:23;;;;;;;2.85;2.05;;;22.40;20.20;;;;;;4920547;28;45555;-41
2024/01/08 07:02:49;;;;;;;2.08;1.88;;;22.40;20.30;;;;;;4939111;28;46904;-44
2024/01/08 07:05:15;;;;;;;2.20;1.90;;;22.40;20.30;;;;;;4919059;28;45625;-43
2024/01/08 07:07:41;;;;;;;2.27;2.07;;;22.40;20.30;;;;;;4929191;28;48080;-44
2024/01/08 07:10:07;;;;;;;2.10;1.90;;;22.30;20.30;;;;;;4940186;28;45537;-40
2024/01/08 07:12:32;;;;;;;2.28;2.05;;;22.30;20.30;;;;;;4913531;28;45515;-47
2024/01/08 07:14:58;;;;;;;3.00;2.03;;;22.30;20.30;;;;;;4946403;28;45708;-45
2024/01/08 07:17:23;;;;;;;2.17;1.98;;;22.30;20.30;;;;;;4928018;28;45558;-48
2024/01/08 07:19:49;;;;;;;2.17;1.98;;;22.30;20.30;;;;;;4929186;28;45251;-45
2024/01/08 07:22:15;;;;;;;2.13;1.92;;;22.30;20.30;;;;;;4941997;28;45897;-48
2024/01/08 07:24:40;;;;;;;1.90;1.80;;;22.30;20.30;;;;;;4952912;28;45190;-51
2024/01/08 07:27:06;;;;;;;2.20;2.00;;;22.30;20.30;;;;;;4944445;28;45066;-41
2024/01/08 07:29:33;;;;;;;2.10;1.90;;;22.30;20.30;;;;;;4933253;28;45590;-41
2024/01/08 07:31:58;;;;;;;2.10;1.90;;;22.30;20.30;;;;;;4912493;28;45729;-47
2024/01/08 07:34:24;;;;;;;2.80;2.00;;;22.30;20.30;;;;;;4949241;28;45657;-48
2024/01/08 07:36:49;;;;;;;2.50;2.30;;;22.30;20.40;;;;;;4936909;28;45203;-52
2024/01/08 07:39:15;;;;;;;2.37;1.90;;;22.30;20.30;;;;;;4936621;28;46380;-52
2024/01/08 07:41:45;;;;;;;2.10;1.90;;;22.30;20.30;;;;;;4928039;28;45542;-49
2024/01/08 07:44:11;;;;;;;2.30;2.10;;;22.20;20.30;;;;;;4921700;28;45255;-47
2024/01/08 07:46:36;;;;;;;2.33;2.13;;;22.20;20.30;;;;;;4914857;28;45531;-46
2024/01/08 07:49:02;;;;;;;3.10;2.30;;;22.20;20.30;;;;;;4948603;28;45179;-49
2024/01/08 07:51:27;;;;;;;2.50;2.00;;;22.20;20.30;;;;;;4925200;28;45659;-50
2024/01/08 07:53:53;;;;;;;2.40;2.10;;;22.20;20.40;;;;;;4947953;28;44748;-48
2024/01/08 07:56:24;;;;;;;2.43;2.10;;;22.20;20.40;;;;;;4926045;28;45276;-47
2024/01/08 07:58:49;;;;;;;2.30;2.10;;;22.20;20.40;;;;;;4951585;28;45863;-54
2024/01/08 08:01:15;;;;;;;2.70;2.50;;;22.20;20.40;;;;;;4929115;28;46474;-45
2024/01/08 08:03:41;;;;;;;2.15;1.95;;;22.20;20.40;;;;;;4932235;28;46062;-51
2024/01/08 08:06:06;;;;;;;2.43;2.17;;;22.10;20.30;;;;;;4936039;28;44959;-49
2024/01/08 08:08:34;;;;;;;2.37;2.17;;;22.10;20.40;;;;;;4951694;28;45787;-49
2024/01/08 08:11:01;;;;;;;2.20;2.00;;;22.20;20.40;;;;;;4920334;28;45229;-50
2024/01/08 08:13:27;;;;;;;2.42;2.20;;;22.10;20.40;;;;;;4933471;28;45314;-52
2024/01/08 08:15:53;;;;;;;2.77;2.13;;;22.10;20.30;;;;;;4904705;28;45704;-52
2024/01/08 08:18:19;;;;;;;2.70;2.23;;;22.10;20.30;;;;;;4947068;28;45943;-48
2024/01/08 08:20:47;;;;;;;2.83;2.13;;;22.10;20.30;;;;;;4940819;28;46310;-41
2024/01/08 08:23:13;;;;;;;3.20;2.30;;;22.00;20.30;;;;;;4952616;28;45226;-41
2024/01/08 08:25:39;;;;;;;2.87;2.50;;;22.10;20.30;;;;;;4941173;28;45101;-42
2024/01/08 08:28:05;;;;;;;2.45;2.25;;;22.10;20.30;;;;;;4928519;28;45761;-40
2024/01/08 08:30:31;;;;;;;2.95;2.30;;;22.10;20.50;;;;;;4920953;28;45274;-50
2024/01/08 08:32:58;;;;;;;2.53;2.22;;;22.00;20.20;;;;;;4944840;28;44934;-49
2024/01/08 08:35:24;;;;;;;2.42;2.10;;;22.00;20.20;;;;;;4942752;28;45804;-47
2024/01/08 08:37:50;;;;;;;2.97;2.37;;;22.00;20.20;;;;;;4955174;28;45151;-50
2024/01/08 08:40:16;;;;;;;2.40;2.20;;;22.00;20.20;;;;;;4926307;28;46062;-50
2024/01/08 08:42:41;;;;;;;2.85;2.50;;;22.00;20.20;;;;;;4948945;28;44984;-52
2024/01/08 08:45:08;;;;;;;3.15;2.30;;;22.00;20.20;;;;;;4945233;28;45367;-53
2024/01/08 08:47:33;;;;;;;3.35;2.20;;;22.00;20.20;;;;;;4941962;28;45449;-46
2024/01/08 08:49:59;;;;;;;2.60;2.40;;;22.00;20.20;;;;;;4946629;28;46401;-50
2024/01/08 08:52:25;;;;;;;2.60;2.40;;;22.00;20.20;;;;;;4927914;28;44939;-49
2024/01/08 08:54:50;;;;;;;2.47;2.20;;;22.00;20.20;;;;;;4948290;28;46190;-50
2024/01/08 08:57:16;;;;;;;3.42;2.72;;;22.00;20.20;;;;;;4938338;28;45275;-51
2024/01/08 08:59:41;;;;;;;2.42;2.22;;;22.00;20.20;;;;;;4951164;28;46068;-48
2024/01/08 09:02:07;;;;;;;2.60;2.40;;;22.00;20.20;;;;;;4926760;28;45448;-41
2024/01/08 09:04:32;;;;;;;2.70;2.50;;;22.00;20.20;;;;;;4951366;28;46290;-41
2024/01/08 09:06:58;;;;;;;2.92;2.50;;;22.00;20.10;;;;;;4941540;28;45565;-42
2024/01/08 09:09:23;;;;;;;2.50;2.30;;;22.00;20.20;;;;;;4933694;28;46111;-40
2024/01/08 09:11:49;;;;;;;2.75;2.42;;;21.90;20.10;;;;;;4936667;28;45461;-44
2024/01/08 09:14:14;;;;;;;3.08;2.63;;;21.90;20.20;;;;;;4932707;28;45473;-42
2024/01/08 09:16:40;;;;;;;2.85;2.40;;;21.90;20.20;;;;;;4912949;28;45174;-49
2024/01/08 09:19:06;;;;;;;2.75;2.28;;;22.00;20.10;;;;;;4927778;28;45630;-49
2024/01/08 09:21:32;;;;;;;2.63;2.43;;;21.90;20.10;;;;;;4920872;28;45305;-47
2024/01/08 09:23:58;;;;;;;2.70;2.50;;;21.90;20.20;;;;;;4950743;28;45186;-54
2024/01/08 09:26:23;;;;;;;3.00;2.58;;;21.90;20.20;;;;;;4943833;28;45388;-47
2024/01/08 09:28:49;;;;;;;3.58;2.80;;;21.90;20.20;;;;;;4936195;28;46377;-47
2024/01/08 09:31:14;;;;;;;2.95;2.50;;;21.90;20.20;;;;;;4930872;28;45244;-44
2024/01/08 09:33:40;;;;;;;2.70;2.50;;;21.90;20.20;;;;;;4943790;28;45237;-50
2024/01/08 09:36:06;;;;;;;3.33;2.87;;;21.80;20.10;;;;;;4937511;28;45702;-49
2024/01/08 09:38:32;;;;;;;2.95;2.67;;;21.90;20.20;;;;;;4949332;28;45562;-49
2024/01/08 09:40:57;;;;;;;3.03;2.75;;;21.90;20.10;;;;;;4942025;28;45518;-48
2024/01/08 09:43:23;;;;;;;2.78;2.58;;;21.90;20.20;;;;;;4945648;28;45160;-46
2024/01/08 09:46:18;;;;;;;2.97;2.60;;;21.90;20.30;;;;;;4916895;28;45377;-52
2024/01/08 09:48:44;;;;;;;3.30;2.90;;;21.90;20.10;;;;;;4915835;28;45703;-45
2024/01/08 09:51:09;;;;;;;2.92;2.63;;;21.90;20.10;;;;;;4921724;28;45565;-42
2024/01/08 09:53:36;;;;;;;3.07;2.77;;;21.90;20.20;;;;;;4956046;28;45662;-47
2024/01/08 09:56:02;;;;;;;3.22;2.80;;;21.90;20.10;;;;;;4923664;28;45565;-47
2024/01/08 09:58:28;;;;;;;3.35;3.05;;;21.90;20.20;;;;;;4921401;28;46408;-49
2024/01/08 10:00:54;;;;;;;3.20;2.90;;;21.80;20.10;;;;;;4917954;28;46195;-45
2024/01/08 10:03:20;;;;;;;3.63;3.03;;;21.80;20.10;;;;;;4909934;28;45721;-46
2024/01/08 10:05:46;;;;;;;3.60;3.30;;;21.80;20.10;;;;;;4936619;28;46054;-49
2024/01/08 10:08:11;;;;;;;3.23;2.93;;;21.80;20.10;;;;;;4926472;28;45540;-42
2024/01/08 10:10:37;;;;;;;3.20;2.90;;;21.80;20.10;;;;;;4936881;28;45683;-43
2024/01/08 10:13:03;;;;;;;3.28;2.92;;;21.80;20.10;;;;;;4926407;28;45653;-42
2024/01/08 10:15:29;;;;;;;3.20;2.90;;;21.80;20.10;;;;;;4926874;28;45774;-41
2024/01/08 10:17:55;;;;;;;3.30;3.00;;;21.80;20.10;;;;;;4944998;28;45880;-43
2024/01/08 10:20:21;;;;;;;3.40;3.10;;;21.80;20.10;;;;;;4934106;28;45181;-41
2024/01/08 10:22:52;;;;;;;3.33;3.03;;;21.80;20.10;;;;;;4936620;28;45680;-43
2024/01/08 10:25:21;;;;;;;3.33;3.00;;;21.80;20.10;;;;;;4906526;28;45965;-42
2024/01/08 10:27:46;;;;;;;4.00;3.20;;;21.80;20.10;;;;;;4947872;28;45569;-41
2024/01/08 10:30:13;;;;;;;3.67;3.17;;;21.80;20.10;;;;;;4938386;28;45187;-40
2024/01/08 10:32:39;;;;;;;3.45;3.15;;;21.70;20.20;;;;;;4886430;28;44993;-42
2024/01/08 10:35:05;;;;;;;3.53;3.23;;;21.80;20.10;;;;;;4947599;28;45255;-43
2024/01/08 10:37:30;;;;;;;3.90;3.47;;;21.70;20.10;;;;;;4921733;28;46486;-43
2024/01/08 10:39:57;;;;;;;3.20;2.90;;;21.70;20.10;;;;;;4947304;28;45437;-43
2024/01/08 10:42:23;;;;;;;3.47;3.00;;;21.70;20.10;;;;;;4918220;28;46319;-41
2024/01/08 10:44:48;;;;;;;3.65;3.08;;;21.70;20.10;;;;;;4943258;28;45654;-42
2024/01/08 10:47:19;;;;;;;3.23;2.93;;;21.70;20.10;;;;;;4921568;28;46295;-42
2024/01/08 10:49:48;;;;;;;4.37;3.50;;;21.70;20.10;;;;;;4906095;28;45552;-41
2024/01/08 10:52:29;;;;;;;3.97;3.58;;;21.70;20.10;;;;;;4891863;28;45856;-41
2024/01/08 10:55:00;;;;;;;3.60;3.20;;;21.70;20.10;;;;;;4930208;28;45068;-42
2024/01/08 10:57:28;;;;;;;3.53;3.22;;;21.70;20.10;;;;;;4906810;28;45324;-42
2024/01/08 10:59:54;;;;;;;3.42;3.13;;;21.70;20.10;;;;;;4926269;28;44897;-41
2024/01/08 11:02:19;;;;;;;3.80;3.40;;;21.70;20.10;;;;;;4912228;28;46186;-45
2024/01/08 11:04:45;;;;;;;4.40;3.43;;;21.60;20.10;;;;;;4932724;28;45095;-44
2024/01/08 11:07:11;;;;;;;3.47;3.17;;;21.60;20.10;;;;;;4911385;28;45633;-43
2024/01/08 11:09:38;;;;;;;4.17;3.63;;;21.60;20.10;;;;;;4950486;28;44870;-44
2024/01/08 11:12:03;;;;;;;4.03;3.40;;;21.60;20.10;;;;;;4933644;28;45574;-41
2024/01/08 11:14:29;;;;;;;4.00;3.60;;;21.60;20.10;;;;;;4930038;28;45306;-44
2024/01/08 11:16:55;;;;;;;3.83;3.45;;;21.60;20.10;;;;;;4911376;28;45492;-42
2024/01/08 11:19:20;;;;;;;3.85;3.45;;;21.60;20.10;;;;;;4930049;28;46180;-42
2024/01/08 11:21:50;;;;;;;5.23;3.70;;;21.60;20.10;;;;;;4938089;28;47431;-41
2024/01/08 11:24:15;;;;;;;3.87;3.50;;;21.60;20.10;;;;;;4925528;28;45320;-40
2024/01/08 11:26:44;;;;;;;4.78;3.50;;;21.60;20.10;;;;;;4916114;28;45525;-44
2024/01/08 11:29:10;;;;;;;4.20;3.80;;;21.60;20.10;;;;;;4949066;28;45487;-40
2024/01/08 11:32:04;;;;;;;4.13;3.72;;;21.60;20.10;;;;;;4896885;28;45415;-50
2024/01/08 11:34:59;;;;;;;4.30;3.90;;;21.60;20.20;;;;;;4941103;28;49326;-47
2024/01/08 11:37:39;;;;;;;4.32;3.60;;;21.50;20.10;;;;;;4913801;28;46580;-43
2024/01/08 11:40:18;;;;;;;3.70;3.33;;;21.60;20.20;;;;;;4942116;28;45739;-40
2024/01/08 11:42:49;;;;;;;4.07;3.67;;;21.60;20.20;;;;;;4952901;28;45545;-42
2024/01/08 11:45:16;;;;;;;3.95;3.35;;;21.50;20.10;;;;;;4920849;28;45402;-41
2024/01/08 11:47:42;;;;;;;3.93;3.53;;;21.50;20.20;;;;;;4939113;28;46438;-44
2024/01/08 11:50:08;;;;;;;4.05;3.65;;;21.50;20.10;;;;;;4934038;28;52394;-41
2024/01/08 11:52:36;;;;;;;4.35;3.92;;;21.50;20.20;;;;;;4924118;28;45568;-41
2024/01/08 11:55:04;;;;;;;3.88;3.47;;;21.50;20.20;;;;;;4944881;28;45245;-44
2024/01/08 11:57:30;;;;;;;4.68;4.00;;;21.50;20.20;;;;;;4914278;28;45465;-43
2024/01/08 11:59:56;;;;;;;4.28;3.88;;;21.50;20.20;;;;;;4937093;28;45199;-42
2024/01/08 12:02:29;;;;;;;4.07;3.67;;;21.50;20.20;;;;;;4936335;28;45123;-41
2024/01/08 12:04:55;;;;;;;4.20;3.80;;;21.50;20.20;;;;;;4948910;28;46101;-41
2024/01/08 12:07:25;;;;;;;4.20;3.80;;;21.50;20.20;;;;;;4936992;28;45589;-47
2024/01/08 12:09:51;;;;;;;4.68;4.15;;;21.50;20.20;;;;;;4952169;28;44853;-44
2024/01/08 12:12:17;;;;;;;4.65;3.83;;;21.40;20.20;;;;;;4921070;28;46655;-52
2024/01/08 12:14:44;;;;;;;4.68;4.13;;;21.50;20.30;;;;;;4920599;28;48134;-41
2024/01/08 12:17:10;;;;;;;4.75;4.22;;;21.50;20.30;;;;;;4932711;28;46080;-40
2024/01/08 12:19:38;;;;;;;5.03;4.10;;;21.40;20.20;;;;;;4927511;28;45577;-40
2024/01/08 12:22:05;;;;;;;4.15;3.75;;;21.40;20.30;;;;;;4948706;28;45727;-41
2024/01/08 12:24:32;;;;;;;4.60;3.92;;;21.40;20.20;;;;;;4935823;28;45282;-44
2024/01/08 12:27:02;;;;;;;5.00;4.30;;;21.40;20.20;;;;;;4930506;28;45490;-40
2024/01/08 12:29:28;;;;;;;4.45;3.80;;;21.40;20.30;;;;;;4956868;28;45403;-40
2024/01/08 12:31:58;;;;;;;4.50;3.90;;;21.40;20.30;;;;;;4939312;28;45514;-41
2024/01/08 12:34:29;;;;;;;4.53;4.10;;;21.40;20.30;;;;;;4931578;28;45520;-43
2024/01/08 12:36:55;;;;;;;5.07;4.05;;;21.40;20.30;;;;;;4947128;28;45247;-42
2024/01/08 12:39:24;;;;;;;5.30;4.43;;;21.40;20.30;;;;;;4948225;28;45273;-42
2024/01/08 12:41:50;;;;;;;5.13;4.55;;;21.40;20.30;;;;;;4925506;28;45525;-43
2024/01/08 12:44:16;;;;;;;4.90;4.20;;;21.40;20.30;;;;;;4933435;28;45231;-41
2024/01/08 12:46:42;;;;;;;4.63;4.22;;;21.40;20.30;;;;;;4909386;28;45718;-42
2024/01/08 12:49:07;;;;;;;5.20;4.70;;;21.40;20.30;;;;;;4950771;28;45215;-41
2024/01/08 12:51:33;;;;;;;5.30;4.60;;;21.40;20.30;;;;;;4939298;28;44897;-43
2024/01/08 12:53:58;;;;;;;5.67;4.47;;;21.30;20.30;;;;;;4946316;28;45281;-41
2024/01/08 12:56:24;;;;;;;5.30;4.50;;;21.40;20.40;;;;;;4941234;28;45283;-41
2024/01/08 13:05:34;;;;;;;4.97;4.47;;;21.30;20.30;;;;;;4936149;28;45349;-46
2024/01/08 13:18:19;;;;;;;5.63;4.90;;;21.30;20.40;;;;;;4950673;28;45255;-44
2024/01/08 13:20:44;;;;;;;5.90;5.07;;;21.20;20.30;;;;;;4937188;28;47086;-44
2024/01/08 13:23:10;;;;;;;5.07;4.57;;;21.30;20.40;;;;;;4956832;28;45692;-43
2024/01/08 13:25:39;;;;;;;5.53;5.03;;;21.20;20.40;;;;;;4942096;28;45256;-43
2024/01/08 13:28:05;;;;;;;5.60;4.80;;;21.20;20.50;;;;;;4921278;28;45551;-47
2024/01/08 13:30:31;;;;;;;5.80;5.20;;;21.20;20.50;;;;;;4931310;28;46616;-49
2024/01/08 13:32:57;;;;;;;6.47;5.30;;;21.10;20.60;;;;;;4949753;28;45376;-44
2024/01/08 13:35:22;;;;;;;5.93;5.33;;;21.10;20.50;;;;;;4949451;28;45066;-45
2024/01/08 13:37:48;;;;;;;6.32;5.28;;;21.10;20.40;;;;;;4930424;28;45190;-49
2024/01/08 13:40:13;;;;;;;6.13;5.53;;;21.10;20.50;;;;;;4950085;28;45141;-53
2024/01/08 13:42:39;;;;;;;5.75;5.15;;;21.10;20.50;;;;;;4950625;28;45587;-46
2024/01/08 13:45:08;;;;;;;6.93;5.40;;;21.10;20.60;;;;;;4937952;28;45484;-55
2024/01/08 13:47:34;;;;;;;5.85;5.25;;;21.10;20.50;;;;;;4919739;28;45199;-46
2024/01/08 13:49:59;;;;;;;6.07;5.45;;;21.00;20.50;;;;;;4949021;28;45943;-49
2024/01/08 13:52:27;;;;;;;6.10;5.47;;;21.00;20.50;;;;;;4948614;28;44810;-53
2024/01/08 13:54:53;;;;;;;6.43;5.57;;;21.00;20.40;;;;;;4957159;28;45466;-49
2024/01/08 13:57:18;;;;;;;6.43;5.67;;;21.00;20.50;;;;;;4942448;28;45199;-42
2024/01/08 13:59:44;;;;;;;6.60;5.87;;;21.00;20.40;;;;;;4938528;28;46533;-41
2024/01/08 14:02:11;;;;;;;6.22;5.55;;;21.00;20.40;;;;;;4939604;28;45445;-40
2024/01/08 14:04:36;;;;;;;7.07;5.80;;;21.00;20.40;;;;;;4932373;28;44738;-52
2024/01/08 14:07:02;;;;;;;5.93;5.30;;;21.00;20.40;;;;;;4930956;28;45382;-50
2024/01/08 14:09:27;;;;;;;6.50;5.65;;;21.00;20.40;;;;;;4948723;28;45695;-53
2024/01/08 14:11:53;;;;;;;6.30;5.70;;;21.00;20.40;;;;;;4926849;28;46995;-48
2024/01/08 14:14:18;;;;;;;6.78;5.88;;;21.00;20.30;;;;;;4940499;28;45442;-48
2024/01/08 14:16:44;;;;;;;7.25;5.78;;;21.00;20.30;;;;;;4939440;28;45293;-44
2024/01/08 14:19:11;;;;;;;6.45;5.70;;;21.00;20.30;;;;;;4956862;28;46230;-53
2024/01/08 14:21:37;;;;;;;6.55;5.80;;;21.00;20.30;;;;;;4938010;28;45320;-46
2024/01/08 14:24:03;;;;;;;6.50;5.63;;;21.00;20.40;;;;;;4938511;28;45368;-46
2024/01/08 14:26:29;;;;;;;6.43;5.77;;;21.00;20.30;;;;;;4927895;28;45801;-53
2024/01/08 14:28:54;;;;;;;6.97;5.67;;;21.00;20.50;;;;;;4916463;28;48103;-46
2024/01/08 14:31:20;;;;;;;5.95;5.20;;;21.00;20.40;;;;;;4937445;28;45617;-47
2024/01/08 14:33:46;;;;;;;6.25;5.63;;;21.00;20.40;;;;;;4929109;28;45678;-49
2024/01/08 14:36:12;;;;;;;6.73;5.80;;;21.00;20.40;;;;;;4941039;28;45814;-48
2024/01/08 14:38:38;;;;;;;7.50;6.18;;;21.00;20.40;;;;;;4951881;28;45501;-43
2024/01/08 14:41:04;;;;;;;6.38;5.70;;;21.00;20.30;;;;;;4949228;28;44931;-48
2024/01/08 14:43:30;;;;;;;6.40;5.63;;;21.00;20.30;;;;;;4957079;28;45259;-43
2024/01/08 14:45:56;;;;;;;6.30;5.50;;;21.00;19.90;;;;;;4918417;28;45097;-44
2024/01/08 14:48:23;;;;;;;6.32;5.43;;;21.00;20.30;;;;;;4938045;28;45792;-42
2024/01/08 14:50:49;;;;;;;6.70;5.60;;;21.00;20.30;;;;;;4914818;28;45391;-43
2024/01/08 14:53:14;;;;;;;6.50;5.57;;;21.00;20.30;;;;;;4909741;28;45242;-48
2024/01/08 14:55:40;;;;;;;6.07;5.47;;;21.00;20.30;;;;;;4929568;28;45232;-48
2024/01/08 14:58:06;;;;;;;6.50;5.77;;;21.00;20.30;;;;;;4936669;28;45297;-50
2024/01/08 15:00:32;;;;;;;7.03;5.60;;;21.00;20.20;;;;;;4929606;28;45234;-55
2024/01/08 15:02:58;;;;;;;6.47;5.68;;;21.00;20.30;;;;;;4924124;28;45243;-53
2024/01/08 15:05:23;;;;;;;6.22;5.45;;;21.10;20.30;;;;;;4908211;28;46463;-49
2024/01/08 15:07:50;;;;;;;6.30;5.50;;;21.10;20.20;;;;;;4942423;28;45445;-50
2024/01/08 15:10:17;;;;;;;7.03;5.90;;;21.10;20.20;;;;;;4937951;28;45314;-52
2024/01/08 15:12:42;;;;;;;5.97;5.38;;;21.00;20.20;;;;;;4939239;28;45323;-52
2024/01/08 15:15:11;;;;;;;6.68;5.72;;;21.10;20.20;;;;;;4923787;28;45537;-55
2024/01/08 15:17:37;;;;;;;6.03;5.43;;;21.10;20.20;;;;;;4921838;28;45991;-54
2024/01/08 15:20:05;;;;;;;6.80;5.43;;;21.10;20.20;;;;;;4925484;28;45303;-55
2024/01/08 15:22:31;;;;;;;7.15;5.75;;;21.10;20.10;;;;;;4918889;28;45560;-51
2024/01/08 15:24:57;;;;;;;6.17;5.47;;;21.10;20.10;;;;;;4944518;28;46131;-45
2024/01/08 15:27:23;;;;;;;6.43;5.63;;;21.20;20.20;;;;;;4923284;28;46177;-49
2024/01/08 15:29:49;;;;;;;6.00;5.40;;;21.20;20.10;;;;;;4943996;28;45422;-50
2024/01/08 15:32:16;;;;;;;6.07;5.47;;;21.20;20.10;;;;;;4913016;28;45313;-46
2024/01/08 15:34:42;;;;;;;6.00;5.40;;;21.20;20.10;;;;;;4911173;28;46356;-45
2024/01/08 15:37:07;;;;;;;6.10;5.30;;;21.20;20.10;;;;;;4938716;28;45143;-41
2024/01/08 15:39:33;;;;;;;6.60;5.30;;;21.20;20.10;;;;;;4948871;28;45228;-44
2024/01/08 15:41:59;;;;;;;5.88;5.20;;;21.20;20.10;;;;;;4934762;28;45132;-45
2024/01/08 15:44:24;;;;;;;6.23;5.47;;;21.30;20.10;;;;;;4926037;28;46334;-42
2024/01/08 15:46:50;;;;;;;5.73;5.13;;;21.30;20.00;;;;;;4909935;28;45421;-42
2024/01/08 15:49:16;;;;;;;6.10;5.13;;;21.30;20.00;;;;;;4931536;28;45222;-44
2024/01/08 15:51:41;;;;;;;5.97;5.37;;;21.30;20.00;;;;;;4902422;28;45418;-42
2024/01/08 15:54:07;;;;;;;5.63;5.03;;;21.30;20.00;;;;;;4945844;28;45522;-42
2024/01/08 15:56:39;;;;;;;5.82;5.22;;;21.30;20.40;;;;;;4939307;28;45735;-45
2024/01/08 15:59:04;;;;;;;5.93;5.32;;;21.30;20.00;;;;;;4913407;28;45278;-46
2024/01/08 16:01:30;;;;;;;5.83;5.20;;;21.40;19.90;;;;;;4932784;28;45305;-44
2024/01/08 16:03:56;;;;;;;5.43;4.87;;;21.40;19.90;;;;;;4940854;28;46197;-49
2024/01/08 16:06:22;;;;;;;5.55;5.03;;;21.40;19.90;;;;;;4941758;28;45418;-48
2024/01/08 16:08:50;;;;;;;6.32;5.43;;;21.40;19.90;;;;;;4941844;28;45250;-42
2024/01/08 16:11:17;;;;;;;5.47;4.75;;;21.40;19.80;;;;;;4918922;28;45139;-43
2024/01/08 16:13:43;;;;;;;6.18;5.18;;;21.40;19.80;;;;;;4944929;28;46330;-43
2024/01/08 16:16:09;;;;;;;5.65;5.10;;;21.50;19.90;;;;;;4875595;28;46845;-44
2024/01/08 16:18:35;;;;;;;5.95;5.35;;;21.50;19.80;;;;;;4944146;28;46224;-49
2024/01/08 16:21:01;;;;;;;5.47;4.97;;;21.50;19.80;;;;;;4931623;28;45229;-46
2024/01/08 16:23:27;;;;;;;5.53;5.00;;;21.50;19.80;;;;;;4926749;28;45209;-51
2024/01/08 16:25:52;;;;;;;6.20;5.57;;;21.60;19.80;;;;;;4912507;28;46822;-47
2024/01/08 16:28:19;;;;;;;6.83;6.03;;;21.60;19.80;;;;;;4941711;28;45902;-50
2024/01/08 16:30:45;;;;;;;7.03;6.10;;;21.60;19.70;;;;;;4924840;28;45741;-49
2024/01/08 16:33:11;;;;;;;7.93;6.45;;;21.60;19.70;;;;;;4927596;28;45287;-49
2024/01/08 16:35:36;;;;;;;7.60;6.50;;;21.60;19.70;;;;;;4938361;28;45377;-44
2024/01/08 16:38:02;;;;;;;8.50;6.77;;;21.60;19.70;;;;;;4945056;28;45258;-51
2024/01/08 16:40:27;;;;;;;8.13;6.80;;;21.60;19.70;;;;;;4933187;28;45469;-50
2024/01/08 16:42:54;;;;;;;9.53;6.90;;;21.70;19.60;;;;;;4939998;28;44877;-47
2024/01/08 16:45:19;;;;;;;8.25;6.93;;;21.70;19.60;;;;;;4913369;28;45459;-54
2024/01/08 16:47:45;;;;;;;9.43;6.83;;;21.70;19.60;;;;;;4917967;28;45366;-48
2024/01/08 16:50:10;;;;;;;9.53;7.50;;;21.70;19.50;;;;;;4925013;28;47028;-52
2024/01/08 16:52:36;;;;;;;9.40;7.33;;;21.70;19.50;;;;;;4935553;28;45114;-48
2024/01/08 16:55:02;;;;;;;9.10;7.13;;;21.80;19.50;;;;;;4922823;28;45327;-56
2024/01/08 16:57:28;;;;;;;8.23;6.88;;;21.70;19.50;;;;;;4892740;28;45716;-50
2024/01/08 16:59:53;;;;;;;8.65;6.95;;;21.80;19.50;;;;;;4938636;28;45225;-45
2024/01/08 17:02:19;;;;;;;8.95;6.97;;;21.80;19.40;;;;;;4903028;28;45680;-47